createdAt,value
2023-04-17T00:04:28.791Z,9.70
2023-04-17T00:10:23.443Z,9.70
2023-04-17T00:16:16.979Z,9.60
2023-04-17T00:22:10.057Z,9.50
2023-04-17T00:28:04.579Z,9.50
2023-04-17T00:33:58.834Z,9.50
2023-04-17T00:39:51.908Z,9.40
2023-04-17T00:45:48.361Z,9.40
2023-04-17T00:51:41.594Z,9.30
2023-04-17T00:57:35.549Z,9.30
2023-04-17T01:03:32.607Z,9.30
2023-04-17T01:09:27.488Z,9.30
2023-04-17T01:15:21.256Z,9.30
2023-04-17T01:21:16.295Z,9.30
2023-04-17T01:27:15.229Z,9.30
2023-04-17T01:33:10.640Z,9.60
2023-04-17T01:39:04.043Z,9.60
2023-04-17T01:44:58.862Z,9.40
2023-04-17T01:50:51.961Z,9.30
2023-04-17T01:56:45.450Z,9.20
2023-04-17T02:02:40.594Z,9.10
2023-04-17T02:08:34.657Z,9.10
2023-04-17T02:14:31.516Z,9.00
2023-04-17T02:20:26.413Z,8.90
2023-04-17T02:26:19.933Z,8.90
2023-04-17T02:32:13.395Z,9.10
2023-04-17T02:38:07.890Z,9.00
2023-04-17T02:44:02.322Z,8.90
2023-04-17T02:49:56.627Z,8.90
2023-04-17T02:55:51.347Z,8.90
2023-04-17T03:01:47.207Z,8.70
2023-04-17T03:07:44.042Z,8.70
2023-04-17T03:13:39.268Z,8.80
2023-04-17T03:19:32.790Z,8.90
2023-04-17T03:25:26.568Z,9.00
2023-04-17T03:31:24.540Z,9.10
2023-04-17T03:37:18.305Z,9.00
2023-04-17T03:43:12.975Z,9.00
2023-04-17T03:49:07.911Z,8.80
2023-04-17T03:55:02.530Z,8.80
2023-04-17T04:00:59.296Z,8.70
2023-04-17T04:06:58.345Z,8.60
2023-04-17T04:12:52.939Z,8.50
2023-04-17T04:18:46.136Z,8.40
2023-04-17T04:24:43.154Z,8.30
2023-04-17T04:30:39.646Z,8.40
2023-04-17T04:36:50.704Z,8.40
2023-04-17T04:42:58.518Z,8.40
2023-04-17T04:48:59.428Z,8.50
2023-04-17T04:54:53.905Z,8.30
2023-04-17T05:00:48.629Z,8.30
2023-04-17T05:06:49.974Z,8.40
2023-04-17T05:12:45.088Z,8.40
2023-04-17T05:18:41.220Z,8.50
2023-04-17T05:24:38.056Z,8.50
2023-04-17T05:30:31.724Z,8.50
2023-04-17T05:36:38.262Z,8.60
2023-04-17T05:42:31.831Z,8.70
2023-04-17T05:48:25.256Z,8.90
2023-04-17T05:54:20.609Z,9.00
2023-04-17T06:00:15.954Z,9.00
2023-04-17T06:06:12.389Z,9.10
2023-04-17T06:12:07.402Z,9.10
2023-04-17T06:18:01.629Z,9.10
2023-04-17T06:23:54.745Z,9.20
2023-04-17T06:29:49.130Z,9.50
2023-04-17T06:35:42.321Z,9.60
2023-04-17T06:41:43.613Z,9.70
2023-04-17T06:47:39.528Z,9.80
2023-04-17T06:53:32.610Z,9.70
2023-04-17T06:59:25.727Z,9.90
2023-04-17T07:05:20.257Z,10.00
2023-04-17T07:11:15.056Z,10.20
2023-04-17T07:17:08.996Z,10.20
2023-04-17T07:23:03.891Z,10.40
2023-04-17T07:28:57.398Z,10.50
2023-04-17T07:34:50.760Z,10.50
2023-04-17T07:40:45.766Z,10.80
2023-04-17T07:46:39.542Z,10.80
2023-04-17T07:52:33.103Z,11.00
2023-04-17T07:58:27.565Z,11.20
2023-04-17T08:04:21.349Z,11.30
2023-04-17T08:10:14.722Z,11.40
2023-04-17T08:16:10.542Z,11.70
2023-04-17T08:22:06.209Z,11.90
2023-04-17T08:27:59.392Z,11.80
2023-04-17T08:34:06.167Z,12.00
2023-04-17T08:40:09.818Z,12.00
2023-04-17T08:46:03.580Z,12.10
2023-04-17T08:51:58.140Z,12.20
2023-04-17T08:57:59.133Z,12.30
2023-04-17T09:03:52.856Z,12.40
2023-04-17T09:09:55.639Z,12.60
2023-04-17T09:16:04.432Z,12.70
2023-04-17T09:21:57.590Z,12.80
2023-04-17T09:27:52.428Z,12.90
2023-04-17T09:33:58.125Z,13.20
2023-04-17T09:40:01.823Z,13.40
2023-04-17T09:45:56.893Z,13.60
2023-04-17T09:51:50.731Z,13.80
2023-04-17T09:57:44.715Z,13.80
2023-04-17T10:03:39.713Z,14.00
2023-04-17T10:09:33.302Z,14.50
2023-04-17T10:15:27.104Z,15.10
2023-04-17T10:21:24.552Z,16.30
2023-04-17T10:27:45.845Z,16.40
2023-04-17T10:33:50.418Z,16.60
2023-04-17T10:40:01.511Z,17.00
2023-04-17T10:46:02.257Z,17.40
2023-04-17T10:51:55.884Z,18.30
2023-04-17T10:58:00.202Z,18.30
2023-04-17T11:03:53.474Z,19.50
2023-04-17T11:09:53.355Z,20.40
2023-04-17T11:15:48.376Z,21.40
2023-04-17T11:21:43.468Z,21.90
2023-04-17T11:27:37.456Z,22.00
2023-04-17T11:33:37.967Z,23.00
2023-04-17T11:39:33.819Z,21.90
2023-04-17T11:45:26.958Z,22.50
2023-04-17T11:51:21.386Z,23.00
2023-04-17T11:57:15.728Z,23.70
2023-04-17T12:03:34.860Z,23.80
2023-04-17T12:09:32.152Z,23.60
2023-04-17T12:15:26.388Z,22.30
2023-04-17T12:21:20.601Z,22.70
2023-04-17T12:27:15.018Z,22.80
2023-04-17T12:33:08.659Z,22.70
2023-04-17T12:39:02.676Z,23.70
2023-04-17T12:44:57.160Z,22.60
2023-04-17T12:50:50.423Z,21.90
2023-04-17T12:56:43.926Z,21.60
2023-04-17T13:02:38.698Z,22.60
2023-04-17T13:08:31.904Z,22.50
2023-04-17T13:14:25.103Z,21.60
2023-04-17T13:20:19.552Z,20.50
2023-04-17T13:26:12.655Z,20.20
2023-04-17T13:32:06.887Z,20.90
2023-04-17T13:38:03.431Z,21.70
2023-04-17T13:43:56.538Z,22.10
2023-04-17T13:49:50.222Z,22.50
2023-04-17T13:55:45.139Z,22.40
2023-04-17T14:01:38.709Z,23.00
2023-04-17T14:07:32.271Z,23.70
2023-04-17T14:13:26.794Z,23.30
2023-04-17T14:19:20.287Z,23.10
2023-04-17T14:25:13.501Z,23.40
2023-04-17T14:31:08.830Z,24.10
2023-04-17T14:37:02.044Z,23.90
2023-04-17T14:42:55.545Z,23.80
2023-04-17T14:48:55.423Z,23.50
2023-04-17T14:54:49.057Z,23.10
2023-04-17T15:00:42.611Z,22.30
2023-04-17T15:06:39.006Z,21.90
2023-04-17T15:12:32.103Z,20.50
2023-04-17T15:18:25.394Z,19.20
2023-04-17T15:24:19.809Z,19.00
2023-04-17T15:30:14.163Z,18.70
2023-04-17T15:36:07.705Z,18.90
2023-04-17T15:42:02.627Z,18.20
2023-04-17T15:47:56.293Z,18.00
2023-04-17T15:53:49.862Z,17.60
2023-04-17T15:59:44.262Z,17.00
2023-04-17T16:05:37.393Z,16.80
2023-04-17T16:11:30.458Z,16.50
2023-04-17T16:17:25.503Z,15.90
2023-04-17T16:23:18.548Z,16.20
2023-04-17T16:29:11.835Z,16.30
2023-04-17T16:35:07.902Z,15.60
2023-04-17T16:41:01.856Z,15.20
2023-04-17T16:52:54.026Z,15.00
2023-04-17T16:58:47.103Z,15.20
2023-04-17T17:04:40.561Z,14.70
2023-04-17T17:10:35.096Z,14.90
2023-04-17T17:22:42.303Z,14.50
2023-04-17T17:28:37.660Z,14.20
2023-04-17T17:34:30.797Z,14.10
2023-04-17T17:40:24.376Z,13.90
2023-04-17T17:46:19.424Z,13.60
2023-04-17T17:52:12.991Z,13.70
2023-04-17T17:58:07.706Z,13.60
2023-04-17T18:04:02.855Z,13.40
2023-04-17T18:09:56.533Z,13.30
2023-04-17T18:15:50.062Z,13.20
2023-04-17T18:21:46.025Z,12.90
2023-04-17T18:27:41.934Z,13.00
2023-04-17T18:33:35.548Z,13.00
2023-04-17T18:39:29.986Z,13.10
2023-04-17T18:45:23.778Z,12.50
2023-04-17T18:51:17.478Z,12.70
2023-04-17T18:57:12.060Z,12.80
2023-04-17T19:03:06.411Z,12.50
2023-04-17T19:09:00.003Z,12.40
2023-04-17T19:14:57.070Z,12.60
2023-04-17T19:20:50.590Z,12.20
2023-04-17T19:26:43.849Z,12.20
2023-04-17T19:32:38.373Z,12.40
2023-04-17T19:38:31.739Z,12.30
2023-04-17T19:44:27.394Z,12.20
2023-04-17T19:50:24.468Z,12.10
2023-04-17T19:56:17.729Z,12.00
2023-04-17T20:02:12.391Z,12.00
2023-04-17T20:08:09.616Z,12.00
2023-04-17T20:14:03.134Z,12.00
2023-04-17T20:19:56.194Z,11.90
2023-04-17T20:25:51.188Z,12.00
2023-04-17T20:31:44.746Z,12.10
2023-04-17T20:37:40.891Z,12.00
2023-04-17T20:43:35.433Z,12.20
2023-04-17T20:49:28.997Z,11.90
2023-04-17T20:55:22.519Z,11.80
2023-04-17T21:01:17.671Z,12.00
2023-04-17T21:07:10.852Z,11.90
2023-04-17T21:13:03.928Z,11.90
2023-04-17T21:18:58.815Z,11.90
2023-04-17T21:24:52.457Z,11.60
2023-04-17T21:30:46.132Z,11.90
2023-04-17T21:36:40.984Z,11.90
2023-04-17T21:42:34.520Z,12.00
2023-04-17T21:48:27.668Z,12.00
2023-04-17T21:54:22.148Z,11.70
2023-04-17T22:00:15.875Z,11.30
2023-04-17T22:06:09.712Z,11.20
2023-04-17T22:12:12.711Z,11.20
2023-04-17T22:18:06.600Z,10.90
2023-04-17T22:23:59.697Z,11.00
2023-04-17T22:29:54.120Z,10.80
2023-04-17T22:35:47.584Z,10.70
2023-04-17T22:41:40.641Z,10.80
2023-04-17T22:47:35.520Z,10.50
2023-04-17T22:53:29.987Z,10.50
2023-04-17T22:59:23.143Z,10.70
2023-04-17T23:05:18.268Z,10.70
2023-04-17T23:11:12.504Z,10.70
2023-04-17T23:17:06.925Z,10.80
2023-04-17T23:23:01.852Z,10.80
2023-04-17T23:28:54.962Z,10.70
2023-04-17T23:34:48.471Z,10.80
2023-04-17T23:40:43.197Z,10.60
2023-04-17T23:46:36.856Z,10.30
2023-04-17T23:52:30.493Z,10.30
2023-04-17T23:58:25.330Z,10.30
